Time;durP1;ratioP1;P1;durP2;ratioP2;P2;SDS_P1;SDS_P2;PMS_P1;PMS_P2;Temp;Humidity;BMP_temperature;BMP_pressure;BME280_temperature;BME280_humidity;BME280_pressure;Samples;Min_cycle;Max_cycle;Signal;HPM_P1;HPM_P2
2022/04/09 00:00:18;;;;;;;0.00;0.00;;;4.20;99.90;;;;;;5055742;28;20071;-82
2022/04/09 00:02:44;;;;;;;0.00;0.00;;;4.20;99.90;;;;;;5070496;28;20535;-82
2022/04/09 00:05:12;;;;;;;0.00;0.00;;;4.10;99.90;;;;;;5055515;28;20090;-82
2022/04/09 00:07:38;;;;;;;0.00;0.00;;;4.10;99.90;;;;;;5056378;28;20056;-82
2022/04/09 00:10:05;;;;;;;0.00;0.00;;;4.10;99.90;;;;;;5056398;28;20088;-82
2022/04/09 00:12:32;;;;;;;0.00;0.00;;;4.10;99.90;;;;;;5056125;28;20060;-82
2022/04/09 00:14:57;;;;;;;0.00;0.00;;;4.00;99.90;;;;;;5072913;28;20480;-82
2022/04/09 00:17:23;;;;;;;0.00;0.00;;;4.00;99.90;;;;;;5072688;28;20052;-82
2022/04/09 00:19:52;;;;;;;0.00;0.00;;;4.00;99.90;;;;;;5056328;28;20056;-82
2022/04/09 00:22:18;;;;;;;0.00;0.00;;;4.00;99.90;;;;;;5072688;28;20048;-82
2022/04/09 00:24:44;;;;;;;0.00;0.00;;;4.00;99.90;;;;;;5055869;28;20135;-82
2022/04/09 00:27:10;;;;;;;0.00;0.00;;;4.00;99.90;;;;;;5072732;28;20123;-82
2022/04/09 00:29:36;;;;;;;0.00;0.00;;;4.00;99.90;;;;;;5072686;28;20040;-82
2022/04/09 00:32:02;;;;;;;0.00;0.00;;;4.00;99.90;;;;;;5073475;28;20055;-82
2022/04/09 00:34:27;;;;;;;0.00;0.00;;;4.00;99.90;;;;;;5072862;28;20544;-82
2022/04/09 00:36:53;;;;;;;0.00;0.00;;;4.00;99.90;;;;;;5055463;28;20086;-82
2022/04/09 00:39:19;;;;;;;0.32;0.10;;;4.00;99.90;;;;;;5072632;28;20048;-82
2022/04/09 00:41:49;;;;;;;1.08;0.25;;;4.00;99.90;;;;;;5072292;28;20041;-83
2022/04/09 00:44:16;;;;;;;0.00;0.00;;;4.10;99.90;;;;;;5072870;28;20048;-82
2022/04/09 00:46:42;;;;;;;0.22;0.22;;;4.10;99.90;;;;;;5073101;28;20051;-82
2022/04/09 00:49:07;;;;;;;0.10;0.10;;;4.10;99.90;;;;;;5056002;28;20555;-82
2022/04/09 00:51:36;;;;;;;0.00;0.00;;;4.00;99.90;;;;;;5072378;28;20487;-82
2022/04/09 00:54:05;;;;;;;0.00;0.00;;;4.00;99.90;;;;;;5072281;28;20040;-82
2022/04/09 00:56:32;;;;;;;0.80;0.40;;;4.00;99.90;;;;;;5055570;28;20063;-82
2022/04/09 00:59:02;;;;;;;0.25;0.25;;;4.00;99.90;;;;;;5055287;28;20045;-82
2022/04/09 01:01:31;;;;;;;7.28;0.43;;;3.90;99.90;;;;;;5072222;28;20519;-82
2022/04/09 01:03:58;;;;;;;0.75;0.45;;;4.00;99.90;;;;;;5072164;28;20567;-83
2022/04/09 01:06:24;;;;;;;0.00;0.00;;;3.90;99.90;;;;;;5055683;28;20050;-82
2022/04/09 01:08:50;;;;;;;0.00;0.00;;;3.90;99.90;;;;;;5072271;28;20134;-82
2022/04/09 01:11:16;;;;;;;0.10;0.10;;;3.90;99.90;;;;;;5055545;28;20048;-82
2022/04/09 01:13:42;;;;;;;0.00;0.00;;;3.90;99.90;;;;;;5055419;28;20088;-82
2022/04/09 01:16:08;;;;;;;0.00;0.00;;;3.90;99.90;;;;;;5072325;28;20083;-82
2022/04/09 01:18:35;;;;;;;0.00;0.00;;;3.90;99.90;;;;;;5072261;28;20091;-82
2022/04/09 01:21:01;;;;;;;0.00;0.00;;;4.00;99.90;;;;;;5072143;28;20090;-82
2022/04/09 01:23:28;;;;;;;0.00;0.00;;;4.00;99.90;;;;;;5055336;28;20061;-82
2022/04/09 01:25:56;;;;;;;0.00;0.00;;;4.00;99.90;;;;;;5072663;28;20076;-82
2022/04/09 01:28:22;;;;;;;0.00;0.00;;;4.00;99.90;;;;;;5072683;28;20403;-82
2022/04/09 01:30:48;;;;;;;0.00;0.00;;;4.00;99.90;;;;;;5072261;28;20136;-82
2022/04/09 01:33:18;;;;;;;0.00;0.00;;;4.00;99.90;;;;;;5055327;28;20134;-82
2022/04/09 01:35:44;;;;;;;0.00;0.00;;;4.10;99.90;;;;;;5055258;28;20052;-82
2022/04/09 01:38:10;;;;;;;0.10;0.10;;;4.10;99.90;;;;;;5071711;28;20550;-82
2022/04/09 01:40:36;;;;;;;0.00;0.00;;;4.10;99.90;;;;;;5055470;28;20079;-82
2022/04/09 01:43:02;;;;;;;0.00;0.00;;;4.10;99.90;;;;;;5072231;28;20075;-82
2022/04/09 01:45:28;;;;;;;1.20;0.00;;;4.10;99.90;;;;;;5071982;28;20127;-83
2022/04/09 01:47:54;;;;;;;3.03;0.08;;;4.10;99.90;;;;;;5071990;28;20052;-82
2022/04/09 01:50:21;;;;;;;0.00;0.00;;;4.00;99.90;;;;;;5074779;28;20132;-82
2022/04/09 01:52:47;;;;;;;0.05;0.05;;;4.00;99.90;;;;;;5075671;28;20123;-82
2022/04/09 01:55:13;;;;;;;0.10;0.10;;;4.00;99.90;;;;;;5075542;28;20044;-82
2022/04/09 01:57:39;;;;;;;0.00;0.00;;;4.10;99.90;;;;;;5075234;28;20049;-82
2022/04/09 02:00:08;;;;;;;0.00;0.00;;;4.10;99.90;;;;;;5075334;28;20049;-82
2022/04/09 02:02:34;;;;;;;0.00;0.00;;;4.10;99.90;;;;;;5075121;28;20420;-82
2022/04/09 02:05:00;;;;;;;0.17;0.17;;;4.10;99.90;;;;;;5075243;28;20048;-82
2022/04/09 02:07:27;;;;;;;0.00;0.00;;;4.10;99.90;;;;;;5075041;28;20440;-82
2022/04/09 02:09:53;;;;;;;0.00;0.00;;;4.10;99.90;;;;;;5058891;28;20407;-82
2022/04/09 02:12:19;;;;;;;0.00;0.00;;;4.00;99.90;;;;;;5058764;28;20056;-82
2022/04/09 02:14:45;;;;;;;0.00;0.00;;;4.00;99.90;;;;;;5075245;28;20040;-82
2022/04/09 02:17:11;;;;;;;0.00;0.00;;;3.90;99.90;;;;;;5074912;28;20071;-82
2022/04/09 02:19:38;;;;;;;0.00;0.00;;;3.90;99.90;;;;;;5075142;28;20127;-82
2022/04/09 02:22:04;;;;;;;0.00;0.00;;;3.80;99.90;;;;;;5074583;28;20126;-82
2022/04/09 02:24:30;;;;;;;1.08;0.22;;;3.70;99.90;;;;;;5058558;28;20049;-82
2022/04/09 02:26:56;;;;;;;0.00;0.00;;;3.70;99.90;;;;;;5074921;28;20084;-82
2022/04/09 02:29:21;;;;;;;0.00;0.00;;;3.80;99.90;;;;;;5058275;28;20456;-82
2022/04/09 02:31:47;;;;;;;0.00;0.00;;;3.70;99.90;;;;;;5074705;28;20056;-82
2022/04/09 02:34:13;;;;;;;0.00;0.00;;;3.70;99.90;;;;;;5074838;28;20076;-82
2022/04/09 02:36:39;;;;;;;0.00;0.00;;;3.70;99.90;;;;;;5074778;28;20083;-82
2022/04/09 02:39:04;;;;;;;0.00;0.00;;;3.70;99.90;;;;;;5058168;28;20048;-82
2022/04/09 02:41:31;;;;;;;0.00;0.00;;;3.60;99.90;;;;;;5074416;28;20040;-82
2022/04/09 02:43:57;;;;;;;0.00;0.00;;;3.60;99.90;;;;;;5074677;28;20075;-82
2022/04/09 02:46:24;;;;;;;0.00;0.00;;;3.60;99.90;;;;;;5074659;28;20052;-82
2022/04/09 02:48:50;;;;;;;0.00;0.00;;;3.60;99.90;;;;;;5074464;28;20047;-82
2022/04/09 02:51:16;;;;;;;0.00;0.00;;;3.50;99.90;;;;;;5074541;28;20131;-82
2022/04/09 02:53:42;;;;;;;0.00;0.00;;;3.50;99.90;;;;;;5057809;28;20434;-82
2022/04/09 02:56:07;;;;;;;0.00;0.00;;;3.40;99.90;;;;;;5057943;28;20148;-83
2022/04/09 02:58:33;;;;;;;0.00;0.00;;;3.40;99.90;;;;;;5057771;28;20125;-82
2022/04/09 03:00:59;;;;;;;0.00;0.00;;;3.40;99.90;;;;;;5057408;28;20052;-82
2022/04/09 03:03:24;;;;;;;0.00;0.00;;;3.40;99.90;;;;;;5074236;28;20098;-82
2022/04/09 03:05:50;;;;;;;0.00;0.00;;;3.40;99.90;;;;;;5058292;28;20051;-82
2022/04/09 03:08:16;;;;;;;0.00;0.00;;;3.40;99.90;;;;;;5057631;28;20055;-82
2022/04/09 03:10:41;;;;;;;0.00;0.00;;;3.40;99.90;;;;;;5057510;28;20130;-82
2022/04/09 03:13:07;;;;;;;0.00;0.00;;;3.40;99.90;;;;;;5073966;28;20048;-82
2022/04/09 03:15:33;;;;;;;0.00;0.00;;;3.40;99.90;;;;;;5074006;28;20048;-82
2022/04/09 03:17:59;;;;;;;0.00;0.00;;;3.40;99.90;;;;;;5057218;28;20515;-82
2022/04/09 03:20:25;;;;;;;0.00;0.00;;;3.40;99.90;;;;;;5057523;28;20140;-82
2022/04/09 03:22:50;;;;;;;0.75;0.20;;;3.50;99.90;;;;;;5056744;28;20140;-82
2022/04/09 03:25:17;;;;;;;0.00;0.00;;;3.40;99.90;;;;;;5056858;28;20126;-82
2022/04/09 03:27:43;;;;;;;0.00;0.00;;;3.40;99.90;;;;;;5073821;28;20044;-82
2022/04/09 03:30:10;;;;;;;0.00;0.00;;;3.40;99.90;;;;;;5057102;28;20460;-82
2022/04/09 03:32:36;;;;;;;0.00;0.00;;;3.40;99.90;;;;;;5073316;28;20052;-82
2022/04/09 03:35:07;;;;;;;0.00;0.00;;;3.40;99.90;;;;;;5073879;28;20055;-83
2022/04/09 03:37:39;;;;;;;0.00;0.00;;;3.40;99.90;;;;;;5074082;28;20109;-82
2022/04/09 03:40:07;;;;;;;0.00;0.00;;;3.40;99.90;;;;;;5073483;28;20055;-82
2022/04/09 03:42:33;;;;;;;0.00;0.00;;;3.40;99.90;;;;;;5056493;28;20589;-82
2022/04/09 03:44:59;;;;;;;0.10;0.10;;;3.50;99.90;;;;;;5056560;28;20061;-82
2022/04/09 03:47:25;;;;;;;0.00;0.00;;;3.50;99.90;;;;;;5072739;28;20074;-82
2022/04/09 03:49:50;;;;;;;0.00;0.00;;;3.50;99.90;;;;;;5071279;28;20048;-82
2022/04/09 03:52:16;;;;;;;0.00;0.00;;;3.50;99.90;;;;;;5071504;28;20049;-82
2022/04/09 03:54:42;;;;;;;0.00;0.00;;;3.50;99.90;;;;;;5073396;28;20143;-82
2022/04/09 03:57:09;;;;;;;0.00;0.00;;;3.50;99.90;;;;;;5056353;28;20395;-82
2022/04/09 03:59:35;;;;;;;0.00;0.00;;;3.50;99.90;;;;;;5073151;28;20053;-82
2022/04/09 04:02:01;;;;;;;0.00;0.00;;;3.40;99.90;;;;;;5073527;28;20400;-82
2022/04/09 04:04:27;;;;;;;0.00;0.00;;;3.40;99.90;;;;;;5056475;28;20051;-82
2022/04/09 04:06:52;;;;;;;0.00;0.00;;;3.40;99.90;;;;;;5073547;28;20044;-82
2022/04/09 04:09:18;;;;;;;0.28;0.28;;;3.40;99.90;;;;;;5055913;28;20070;-82
2022/04/09 04:11:44;;;;;;;0.00;0.00;;;3.40;99.90;;;;;;5072157;28;20048;-82
2022/04/09 04:14:11;;;;;;;0.00;0.00;;;3.40;99.90;;;;;;5073008;28;20082;-83
2022/04/09 04:16:37;;;;;;;0.00;0.00;;;3.40;99.90;;;;;;5056307;28;20480;-82
2022/04/09 04:19:03;;;;;;;0.00;0.00;;;3.40;99.90;;;;;;5072903;28;20044;-82
2022/04/09 04:21:28;;;;;;;0.00;0.00;;;3.40;99.90;;;;;;5055591;28;20040;-82
2022/04/09 04:23:54;;;;;;;0.00;0.00;;;3.40;99.90;;;;;;5056342;28;20154;-83
2022/04/09 04:26:20;;;;;;;0.80;0.32;;;3.40;99.90;;;;;;5072565;28;20051;-82
2022/04/09 04:28:48;;;;;;;0.00;0.00;;;3.40;99.90;;;;;;5072770;28;20400;-83
2022/04/09 04:31:20;;;;;;;0.00;0.00;;;3.40;99.90;;;;;;5073430;28;20393;-82
2022/04/09 04:33:46;;;;;;;0.00;0.00;;;3.40;99.90;;;;;;5072758;28;20063;-82
2022/04/09 04:36:12;;;;;;;0.00;0.00;;;3.40;99.90;;;;;;5073065;28;20487;-82
2022/04/09 04:38:38;;;;;;;0.00;0.00;;;3.40;99.90;;;;;;5055807;28;20052;-82
2022/04/09 04:41:05;;;;;;;0.00;0.00;;;3.40;99.90;;;;;;5072530;28;20043;-82
2022/04/09 04:43:34;;;;;;;0.00;0.00;;;3.30;99.90;;;;;;5072603;28;20426;-82
2022/04/09 04:46:00;;;;;;;0.00;0.00;;;3.30;99.90;;;;;;5072834;28;20080;-82
2022/04/09 04:48:26;;;;;;;0.00;0.00;;;3.30;99.90;;;;;;5072742;28;20045;-82
2022/04/09 04:50:52;;;;;;;0.00;0.00;;;3.30;99.90;;;;;;5073568;28;20102;-82
2022/04/09 04:53:17;;;;;;;0.13;0.13;;;3.40;99.90;;;;;;5055409;28;20084;-82
2022/04/09 04:55:43;;;;;;;0.00;0.00;;;3.30;99.90;;;;;;5072478;28;20040;-83
2022/04/09 04:58:09;;;;;;;0.00;0.00;;;3.30;99.90;;;;;;5072425;28;20131;-82
2022/04/09 05:00:35;;;;;;;0.00;0.00;;;3.30;99.90;;;;;;5055656;28;20044;-82
2022/04/09 05:03:01;;;;;;;0.00;0.00;;;3.30;99.90;;;;;;5072472;28;20048;-82
2022/04/09 05:05:26;;;;;;;0.00;0.00;;;3.30;99.90;;;;;;5072278;28;20114;-83
2022/04/09 05:07:53;;;;;;;0.00;0.00;;;3.30;99.90;;;;;;5072429;28;20134;-82
2022/04/09 05:10:20;;;;;;;0.00;0.00;;;3.30;99.90;;;;;;5072496;28;20048;-82
2022/04/09 05:12:47;;;;;;;1.25;0.55;;;3.30;99.90;;;;;;5056078;28;20053;-82
2022/04/09 05:15:15;;;;;;;0.00;0.00;;;3.40;99.90;;;;;;5055624;28;20049;-82
2022/04/09 05:17:41;;;;;;;0.00;0.00;;;3.70;99.90;;;;;;5072219;28;20106;-82
2022/04/09 05:20:12;;;;;;;0.13;0.00;;;3.40;99.90;;;;;;5072389;28;20125;-82
2022/04/09 05:22:43;;;;;;;0.00;0.00;;;3.40;99.90;;;;;;5072212;28;20106;-83
2022/04/09 05:25:10;;;;;;;0.00;0.00;;;3.60;99.90;;;;;;5059241;28;20044;-82
2022/04/09 05:27:36;;;;;;;0.05;0.05;;;3.60;99.90;;;;;;5076075;28;20037;-82
2022/04/09 05:30:03;;;;;;;0.22;0.22;;;3.70;99.90;;;;;;5075637;28;20041;-82
2022/04/09 05:32:29;;;;;;;1.65;0.63;;;3.80;99.90;;;;;;5076076;28;20523;-82
2022/04/09 05:34:55;;;;;;;0.00;0.00;;;3.90;99.90;;;;;;5076023;28;20084;-82
2022/04/09 05:37:20;;;;;;;0.00;0.00;;;3.90;99.90;;;;;;5059299;28;20139;-82
2022/04/09 05:39:47;;;;;;;0.00;0.00;;;3.90;99.90;;;;;;5058990;28;20098;-83
2022/04/09 05:42:13;;;;;;;0.00;0.00;;;4.00;99.90;;;;;;5076223;28;20048;-82
2022/04/09 05:44:39;;;;;;;0.00;0.00;;;3.90;99.90;;;;;;5075768;28;20442;-82
2022/04/09 05:47:05;;;;;;;0.00;0.00;;;3.90;99.90;;;;;;5075709;28;20044;-82
2022/04/09 05:49:31;;;;;;;0.00;0.00;;;3.90;99.90;;;;;;5058685;28;20098;-82
2022/04/09 05:51:57;;;;;;;0.00;0.00;;;3.90;99.90;;;;;;5058629;28;20059;-82
2022/04/09 05:54:24;;;;;;;0.00;0.00;;;3.90;99.90;;;;;;5058867;28;20087;-84
2022/04/09 05:56:50;;;;;;;0.00;0.00;;;4.00;99.90;;;;;;5058595;28;20514;-82
2022/04/09 05:59:16;;;;;;;0.00;0.00;;;4.00;99.90;;;;;;5076010;28;20392;-82
2022/04/09 06:01:42;;;;;;;0.00;0.00;;;4.50;99.90;;;;;;5074898;28;20041;-82
2022/04/09 06:04:07;;;;;;;0.00;0.00;;;4.30;99.90;;;;;;5075073;28;20048;-82
2022/04/09 06:06:33;;;;;;;0.00;0.00;;;4.40;99.90;;;;;;5075447;28;20036;-82
2022/04/09 06:08:59;;;;;;;0.00;0.00;;;4.50;99.90;;;;;;5075266;28;20131;-82
2022/04/09 06:11:24;;;;;;;0.00;0.00;;;4.60;99.90;;;;;;5075261;28;20522;-83
2022/04/09 06:13:50;;;;;;;0.00;0.00;;;4.80;99.90;;;;;;5058803;28;20052;-83
2022/04/09 06:16:16;;;;;;;0.00;0.00;;;5.00;99.90;;;;;;5058930;28;20373;-83
2022/04/09 06:18:42;;;;;;;0.00;0.00;;;5.20;99.90;;;;;;5058499;28;20075;-82
2022/04/09 06:21:09;;;;;;;0.00;0.00;;;5.30;99.90;;;;;;5058447;28;20036;-83
2022/04/09 06:23:35;;;;;;;0.00;0.00;;;5.40;99.90;;;;;;5057076;28;20059;-83
2022/04/09 06:26:01;;;;;;;0.00;0.00;;;5.50;99.90;;;;;;5074980;28;20045;-83
2022/04/09 06:28:27;;;;;;;0.00;0.00;;;5.40;99.90;;;;;;5075055;28;20480;-83
2022/04/09 06:30:53;;;;;;;0.00;0.00;;;5.40;99.90;;;;;;5058239;28;20044;-84
2022/04/09 06:33:19;;;;;;;0.00;0.00;;;5.40;99.90;;;;;;5075194;28;20129;-84
2022/04/09 06:35:47;;;;;;;0.13;0.00;;;5.40;99.90;;;;;;5074143;28;20055;-83
2022/04/09 06:38:13;;;;;;;0.00;0.00;;;5.50;99.90;;;;;;5075240;28;20055;-82
2022/04/09 06:40:39;;;;;;;0.00;0.00;;;6.00;99.90;;;;;;5057978;28;20059;-83
2022/04/09 06:43:05;;;;;;;0.00;0.00;;;5.90;99.90;;;;;;5057987;28;20044;-82
2022/04/09 06:45:31;;;;;;;0.00;0.00;;;6.00;99.90;;;;;;5074595;28;20045;-83
2022/04/09 06:47:57;;;;;;;0.00;0.00;;;6.10;99.90;;;;;;5058053;28;20056;-83
2022/04/09 06:50:22;;;;;;;0.00;0.00;;;6.20;99.90;;;;;;5057838;28;20052;-83
2022/04/09 06:52:48;;;;;;;0.10;0.10;;;6.30;99.90;;;;;;5057584;28;20048;-83
2022/04/09 06:55:14;;;;;;;0.00;0.00;;;6.30;99.90;;;;;;5074494;28;20106;-83
2022/04/09 06:57:41;;;;;;;0.00;0.00;;;6.40;99.90;;;;;;5074070;28;20049;-83
2022/04/09 07:00:12;;;;;;;0.00;0.00;;;7.00;99.90;;;;;;5058021;28;20049;-83
2022/04/09 07:02:39;;;;;;;0.00;0.00;;;8.10;99.90;;;;;;5074084;28;20503;-83
2022/04/09 07:05:06;;;;;;;0.57;0.30;;;9.10;99.90;;;;;;5074214;28;20380;-83
2022/04/09 07:07:32;;;;;;;0.00;0.00;;;9.80;99.90;;;;;;5057103;28;20143;-83
2022/04/09 07:10:09;;;;;;;0.00;0.00;;;9.90;99.90;;;;;;5057357;28;20060;-83
2022/04/09 07:12:36;;;;;;;21.73;0.47;;;10.10;99.90;;;;;;5057387;28;20048;-83
2022/04/09 07:15:03;;;;;;;0.00;0.00;;;10.50;99.90;;;;;;5074168;28;20400;-83
2022/04/09 07:17:29;;;;;;;0.00;0.00;;;11.00;99.90;;;;;;5073748;28;20537;-83
2022/04/09 07:19:59;;;;;;;0.00;0.00;;;11.80;99.90;;;;;;5073972;28;20044;-83
2022/04/09 07:22:26;;;;;;;0.17;0.17;;;12.30;99.90;;;;;;5073333;28;20068;-83
2022/04/09 07:24:52;;;;;;;1.00;0.17;;;12.20;99.90;;;;;;5073615;28;20466;-83
2022/04/09 07:27:17;;;;;;;0.00;0.00;;;12.50;99.90;;;;;;5057070;28;20105;-83
2022/04/09 07:29:43;;;;;;;0.00;0.00;;;12.30;99.90;;;;;;5073563;28;20173;-83
2022/04/09 07:32:09;;;;;;;0.00;0.00;;;11.80;99.90;;;;;;5073723;28;20059;-83
2022/04/09 07:34:35;;;;;;;0.00;0.00;;;11.00;99.90;;;;;;5073607;28;20137;-84
2022/04/09 07:37:00;;;;;;;0.00;0.00;;;10.20;99.90;;;;;;5056416;28;20061;-84
2022/04/09 07:39:26;;;;;;;0.00;0.00;;;9.70;99.90;;;;;;5072651;28;20434;-83
2022/04/09 07:41:52;;;;;;;0.20;0.20;;;9.30;99.90;;;;;;5073410;28;20404;-83
2022/04/09 07:44:18;;;;;;;0.00;0.00;;;8.80;99.90;;;;;;5056256;28;20377;-83
2022/04/09 07:46:43;;;;;;;0.65;0.65;;;8.40;99.90;;;;;;5037306;28;20045;-82
2022/04/09 07:49:09;;;;;;;0.00;0.00;;;8.20;99.90;;;;;;5053633;28;20052;-83
2022/04/09 07:51:35;;;;;;;0.10;0.10;;;8.30;99.90;;;;;;5036840;28;20068;-83
2022/04/09 07:54:01;;;;;;;0.30;0.25;;;8.70;99.90;;;;;;5053249;28;20090;-83
2022/04/09 07:56:26;;;;;;;0.10;0.03;;;9.40;99.90;;;;;;5053123;28;20117;-83
2022/04/09 07:58:52;;;;;;;0.00;0.00;;;9.90;99.90;;;;;;5036402;28;20143;-83
2022/04/09 08:01:18;;;;;;;0.20;0.20;;;10.40;99.90;;;;;;5036248;28;20128;-83
2022/04/09 08:03:44;;;;;;;0.00;0.00;;;10.60;99.90;;;;;;5052973;28;20109;-83
2022/04/09 08:06:09;;;;;;;0.00;0.00;;;10.40;99.90;;;;;;5036603;28;20041;-83
2022/04/09 08:08:35;;;;;;;0.00;0.00;;;10.20;99.90;;;;;;5053123;28;20041;-83
2022/04/09 08:11:01;;;;;;;0.00;0.00;;;10.10;99.90;;;;;;5052525;28;20061;-83
2022/04/09 08:13:27;;;;;;;0.35;0.15;;;9.90;99.90;;;;;;5036430;28;20134;-83
2022/04/09 08:15:52;;;;;;;0.00;0.00;;;9.60;99.90;;;;;;5053521;28;20071;-83
2022/04/09 08:18:18;;;;;;;0.00;0.00;;;9.50;99.90;;;;;;5053131;28;20045;-83
2022/04/09 08:20:44;;;;;;;0.00;0.00;;;9.30;99.90;;;;;;5035787;28;20045;-83
2022/04/09 08:23:09;;;;;;;0.00;0.00;;;9.20;99.90;;;;;;5052402;28;20053;-83
2022/04/09 08:25:35;;;;;;;0.73;0.10;;;9.20;99.90;;;;;;5035917;28;20048;-83
2022/04/09 08:28:02;;;;;;;0.00;0.00;;;9.20;99.90;;;;;;5035955;28;20393;-83
2022/04/09 08:30:29;;;;;;;0.00;0.00;;;9.40;99.90;;;;;;5052671;28;20075;-84
2022/04/09 08:32:56;;;;;;;0.20;0.00;;;9.40;99.90;;;;;;5052695;28;20052;-84
2022/04/09 08:35:22;;;;;;;0.00;0.00;;;9.40;99.90;;;;;;5035848;28;20088;-84
2022/04/09 08:37:53;;;;;;;0.32;0.22;;;9.30;99.90;;;;;;5052762;28;20044;-83
2022/04/09 08:40:20;;;;;;;4.80;0.93;;;9.40;99.90;;;;;;5052506;28;20080;-84
2022/04/09 08:42:46;;;;;;;0.00;0.00;;;9.50;99.90;;;;;;5035544;28;20057;-84
2022/04/09 08:45:12;;;;;;;0.00;0.00;;;9.70;99.90;;;;;;5035872;28;20481;-84
2022/04/09 08:47:40;;;;;;;0.00;0.00;;;9.90;99.90;;;;;;5053184;28;20048;-84
2022/04/09 08:50:09;;;;;;;0.10;0.10;;;10.10;99.90;;;;;;5035864;28;20087;-84
2022/04/09 08:52:39;;;;;;;0.00;0.00;;;10.10;99.90;;;;;;5035730;28;20045;-85
2022/04/09 08:55:06;;;;;;;0.00;0.00;;;10.20;99.90;;;;;;5035857;28;20056;-85
2022/04/09 08:57:34;;;;;;;0.00;0.00;;;10.20;99.90;;;;;;5035881;28;20048;-85
2022/04/09 09:00:04;;;;;;;0.25;0.05;;;10.30;99.90;;;;;;5056581;28;20049;-84
2022/04/09 09:02:31;;;;;;;0.00;0.00;;;10.30;99.90;;;;;;5039735;28;20045;-84
2022/04/09 09:04:56;;;;;;;0.00;0.00;;;10.40;99.90;;;;;;5039848;28;20053;-84
2022/04/09 09:07:24;;;;;;;0.52;0.32;;;10.60;99.90;;;;;;5039876;28;20049;-84
2022/04/09 09:09:51;;;;;;;0.00;0.00;;;10.90;99.90;;;;;;5056151;28;20424;-84
2022/04/09 09:12:28;;;;;;;3.10;0.32;;;11.10;99.90;;;;;;5056357;28;20485;-84
2022/04/09 09:14:55;;;;;;;0.00;0.00;;;10.90;99.90;;;;;;5056311;28;20505;-84
2022/04/09 09:17:28;;;;;;;0.08;0.08;;;10.70;99.90;;;;;;5039725;28;20528;-84
2022/04/09 09:19:54;;;;;;;0.00;0.00;;;10.30;99.90;;;;;;5056270;28;20040;-84
2022/04/09 09:22:20;;;;;;;0.00;0.00;;;10.10;99.90;;;;;;5055461;28;20064;-83
2022/04/09 09:25:07;;;;;;;1.10;0.28;;;10.20;99.90;;;;;;5040056;28;20057;-83
2022/04/09 09:27:33;;;;;;;0.00;0.00;;;10.50;99.90;;;;;;5056087;28;20052;-83
2022/04/09 09:29:59;;;;;;;0.00;0.00;;;10.50;98.10;;;;;;5055769;28;20041;-83
2022/04/09 09:32:26;;;;;;;0.00;0.00;;;10.70;97.50;;;;;;5055672;28;20056;-83
2022/04/09 09:34:56;;;;;;;0.00;0.00;;;10.80;97.70;;;;;;5039106;28;20493;-84
2022/04/09 09:37:24;;;;;;;0.00;0.00;;;11.10;99.80;;;;;;5055985;28;20388;-84
2022/04/09 09:39:51;;;;;;;0.00;0.00;;;11.40;97.80;;;;;;5055956;28;20045;-83
2022/04/09 09:42:26;;;;;;;0.00;0.00;;;11.70;98.10;;;;;;5055681;28;20048;-84
2022/04/09 09:44:52;;;;;;;0.00;0.00;;;11.90;97.80;;;;;;5055983;28;20053;-84
2022/04/09 09:47:18;;;;;;;0.00;0.00;;;11.80;98.60;;;;;;5055730;28;20045;-84
2022/04/09 09:49:59;;;;;;;0.00;0.00;;;12.10;99.90;;;;;;5039104;28;20049;-84
2022/04/09 09:52:28;;;;;;;0.00;0.00;;;12.30;99.50;;;;;;5055801;28;20079;-84
2022/04/09 09:54:58;;;;;;;0.00;0.00;;;12.20;97.70;;;;;;5039013;28;20049;-85
2022/04/09 09:57:28;;;;;;;0.00;0.00;;;12.00;97.30;;;;;;5055209;28;20045;-84
2022/04/09 09:59:59;;;;;;;0.00;0.00;;;12.00;95.60;;;;;;5038948;28;20099;-84
2022/04/09 10:02:25;;;;;;;0.00;0.00;;;11.60;94.30;;;;;;5039498;28;20174;-85
2022/04/09 10:04:52;;;;;;;0.00;0.00;;;11.50;94.40;;;;;;5055009;28;20484;-85
2022/04/09 10:07:20;;;;;;;0.08;0.08;;;11.40;95.30;;;;;;5055030;28;20052;-85
2022/04/09 10:09:46;;;;;;;0.00;0.00;;;11.50;95.30;;;;;;5037664;28;20401;-85
2022/04/09 10:12:20;;;;;;;0.10;0.00;;;11.40;93.20;;;;;;5038583;28;20150;-85
2022/04/09 10:15:07;;;;;;;0.00;0.00;;;11.70;94.80;;;;;;5054512;28;20386;-86
2022/04/09 10:17:34;;;;;;;0.00;0.00;;;11.80;94.30;;;;;;5055035;28;20041;-86
2022/04/09 10:20:02;;;;;;;8.38;0.90;;;11.40;94.80;;;;;;5038937;28;20114;-86
2022/04/09 10:22:42;;;;;;;0.00;0.00;;;10.90;96.60;;;;;;5037738;28;20060;-86
2022/04/09 10:25:08;;;;;;;0.00;0.00;;;10.40;97.90;;;;;;5054566;28;20045;-86
2022/04/09 10:27:43;;;;;;;0.00;0.00;;;10.10;99.90;;;;;;5038584;28;20049;-86
2022/04/09 10:30:15;;;;;;;0.00;0.00;;;9.80;99.90;;;;;;5055428;28;20052;-86
2022/04/09 10:32:45;;;;;;;0.00;0.00;;;9.80;99.90;;;;;;5038035;28;20380;-85
2022/04/09 10:35:44;;;;;;;0.20;0.20;;;10.00;99.90;;;;;;5038208;28;20139;-86
2022/04/09 10:38:10;;;;;;;0.00;0.00;;;10.60;99.90;;;;;;4997775;28;20157;-87
2022/04/09 10:40:56;;;;;;;1.00;0.10;;;11.20;99.90;;;;;;4981368;28;20054;-86
2022/04/09 10:43:25;;;;;;;0.00;0.00;;;11.70;99.90;;;;;;4981401;28;20553;-86
2022/04/09 10:46:03;;;;;;;0.00;0.00;;;12.00;99.90;;;;;;4981111;28;20413;-87
2022/04/09 10:48:30;;;;;;;0.20;0.20;;;11.50;97.80;;;;;;4981356;28;20069;-85
2022/04/09 10:51:07;;;;;;;0.00;0.00;;;11.10;98.50;;;;;;4997516;28;20057;-85
2022/04/09 10:53:43;;;;;;;0.00;0.00;;;10.40;99.10;;;;;;4981381;28;20073;-86
2022/04/09 10:56:29;;;;;;;0.00;0.00;;;9.70;99.90;;;;;;4997601;28;20108;-85
2022/04/09 10:59:13;;;;;;;0.00;0.00;;;9.00;99.90;;;;;;4980954;28;20062;-85
2022/04/09 11:01:48;;;;;;;0.00;0.00;;;8.80;99.90;;;;;;4996595;28;20056;-85
2022/04/09 11:07:17;;;;;;;0.00;0.00;;;8.60;99.90;;;;;;4997253;28;20085;-85
2022/04/09 11:09:45;;;;;;;0.40;0.10;;;8.40;99.90;;;;;;4997661;28;20053;-85
2022/04/09 11:12:12;;;;;;;0.00;0.00;;;8.20;99.90;;;;;;4997214;28;20041;-85
2022/04/09 11:15:01;;;;;;;0.15;0.15;;;8.00;99.90;;;;;;5029492;28;20064;-85
2022/04/09 11:17:35;;;;;;;0.47;0.17;;;7.70;99.90;;;;;;5036813;28;20049;-85
2022/04/09 11:20:15;;;;;;;0.00;0.00;;;7.20;99.90;;;;;;5054168;28;20064;-85
2022/04/09 11:22:43;;;;;;;0.00;0.00;;;6.90;99.90;;;;;;5053436;28;20060;-85
2022/04/09 11:25:16;;;;;;;0.00;0.00;;;6.70;99.90;;;;;;5037198;28;20135;-85
2022/04/09 11:27:42;;;;;;;0.00;0.00;;;6.60;99.90;;;;;;5053621;28;20477;-85
2022/04/09 11:30:08;;;;;;;0.00;0.00;;;6.80;99.90;;;;;;5053869;28;20045;-85
2022/04/09 11:32:35;;;;;;;0.00;0.00;;;7.10;99.90;;;;;;5037060;28;20049;-85
2022/04/09 11:35:10;;;;;;;0.00;0.00;;;7.70;99.90;;;;;;5037414;28;20096;-86
2022/04/09 11:37:43;;;;;;;0.00;0.00;;;8.30;99.90;;;;;;5053335;28;20150;-86
2022/04/09 11:40:12;;;;;;;0.00;0.00;;;8.40;99.90;;;;;;5036909;28;20056;-86
2022/04/09 11:42:49;;;;;;;0.00;0.00;;;8.40;99.90;;;;;;5036803;28;20049;-86
2022/04/09 11:45:27;;;;;;;0.00;0.00;;;8.60;99.90;;;;;;5037206;28;20106;-86
2022/04/09 11:47:55;;;;;;;0.00;0.00;;;8.90;99.90;;;;;;5037222;28;20404;-86
2022/04/09 11:50:21;;;;;;;0.00;0.00;;;9.30;99.90;;;;;;5036920;28;20052;-86
2022/04/09 11:52:47;;;;;;;0.00;0.00;;;9.40;99.90;;;;;;5036681;28;20095;-84
2022/04/09 11:55:14;;;;;;;0.00;0.00;;;9.40;99.90;;;;;;5036284;28;20045;-86
2022/04/09 11:57:49;;;;;;;0.00;0.00;;;9.50;99.90;;;;;;5044299;28;20381;-85
2022/04/09 12:00:15;;;;;;;0.00;0.00;;;9.70;99.90;;;;;;5071463;28;20052;-86
2022/04/09 12:02:41;;;;;;;0.00;0.00;;;9.90;99.90;;;;;;5052095;28;20068;-86
2022/04/09 12:05:12;;;;;;;0.00;0.00;;;10.00;99.90;;;;;;5042409;28;20051;-86
2022/04/09 12:07:42;;;;;;;1.02;0.35;;;9.90;99.90;;;;;;5040630;28;20496;-86
2022/04/09 12:10:28;;;;;;;0.00;0.00;;;9.70;99.90;;;;;;5055508;28;20068;-85
2022/04/09 12:12:59;;;;;;;0.00;0.00;;;9.50;99.90;;;;;;5054235;28;20463;-86
2022/04/09 12:15:33;;;;;;;0.00;0.00;;;9.60;99.90;;;;;;5070268;28;20059;-83
2022/04/09 12:18:00;;;;;;;0.00;0.00;;;9.70;99.90;;;;;;5054309;28;20096;-85
2022/04/09 12:20:34;;;;;;;0.00;0.00;;;10.00;99.90;;;;;;5054213;28;20056;-84
2022/04/09 12:23:00;;;;;;;0.40;0.00;;;10.30;99.90;;;;;;5069980;28;20048;-83
2022/04/09 12:25:35;;;;;;;0.00;0.00;;;10.50;99.90;;;;;;5054218;28;20052;-85
2022/04/09 12:28:02;;;;;;;;;;;10.50;99.90;;;;;;5070287;28;20114;-84
2022/04/09 12:30:42;;;;;;;0.00;0.00;;;10.50;99.90;;;;;;5070991;28;19946;-84
2022/04/09 12:33:10;;;;;;;0.08;0.00;;;10.70;99.90;;;;;;5070039;28;20142;-85
2022/04/09 12:35:36;;;;;;;0.00;0.00;;;10.70;99.90;;;;;;5054466;28;20053;-85
2022/04/09 12:38:01;;;;;;;0.00;0.00;;;10.60;99.90;;;;;;5069707;28;20121;-84
2022/04/09 12:40:29;;;;;;;0.00;0.00;;;10.50;99.90;;;;;;5053559;28;20059;-85
2022/04/09 12:42:55;;;;;;;0.00;0.00;;;10.40;99.90;;;;;;5070614;28;20041;-85
2022/04/09 12:45:23;;;;;;;0.00;0.00;;;10.50;99.90;;;;;;5070852;28;20127;-85
2022/04/09 12:48:05;;;;;;;0.00;0.00;;;10.70;99.90;;;;;;5069611;28;20058;-85
2022/04/09 12:50:35;;;;;;;0.00;0.00;;;11.00;99.90;;;;;;5070215;28;20044;-85
2022/04/09 12:53:05;;;;;;;0.52;0.47;;;11.30;99.90;;;;;;5053400;28;20055;-84
2022/04/09 12:55:32;;;;;;;0.00;0.00;;;11.50;99.90;;;;;;5053996;28;20064;-85
2022/04/09 12:58:00;;;;;;;0.00;0.00;;;11.30;99.90;;;;;;5070508;28;20045;-85
2022/04/09 13:00:31;;;;;;;0.00;0.00;;;10.60;99.90;;;;;;5070853;28;20102;-85